createdAt,value
2023-01-08T00:00:01.049Z,99796.19
2023-01-08T00:01:34.259Z,99789.19
2023-01-08T00:03:07.580Z,99782.94
2023-01-08T00:04:40.704Z,99787.06
2023-01-08T00:06:16.296Z,99787.69
2023-01-08T00:07:50.871Z,99791.03
2023-01-08T00:09:24.091Z,99789.34
2023-01-08T00:10:57.445Z,99778.16
2023-01-08T00:12:30.703Z,99785.91
2023-01-08T00:14:04.522Z,99780.75
2023-01-08T00:15:37.633Z,99790.22
2023-01-08T00:17:10.851Z,99796.28
2023-01-08T00:18:45.273Z,99790.28
2023-01-08T00:20:17.798Z,99788.59
2023-01-08T00:21:50.921Z,99797.34
2023-01-08T00:23:25.616Z,99795.63
2023-01-08T00:24:58.863Z,99795.69
2023-01-08T00:26:32.513Z,99793.94
2023-01-08T00:28:04.793Z,99791.34
2023-01-08T00:29:38.139Z,99793.19
2023-01-08T00:31:13.113Z,99791.50
2023-01-08T00:32:46.342Z,99781.97
2023-01-08T00:34:19.543Z,99790.69
2023-01-08T00:35:52.773Z,99782.03
2023-01-08T00:37:26.140Z,99786.38
2023-01-08T00:39:01.362Z,99794.16
2023-01-08T00:40:34.733Z,99768.16
2023-01-08T00:42:07.913Z,99782.13
2023-01-08T00:43:41.282Z,99781.25
2023-01-08T00:45:13.619Z,99780.38
2023-01-08T00:46:46.818Z,99779.44
2023-01-08T00:48:19.909Z,99782.00
2023-01-08T00:49:53.327Z,99785.50
2023-01-08T00:51:29.254Z,99786.31
2023-01-08T00:53:03.679Z,99781.91
2023-01-08T00:54:38.340Z,99787.94
2023-01-08T00:56:12.454Z,99790.53
2023-01-08T00:57:45.660Z,99779.28
2023-01-08T00:59:18.888Z,99784.41
2023-01-08T01:00:52.165Z,99788.75
2023-01-08T01:02:25.578Z,99792.13
2023-01-08T01:03:58.828Z,99796.38
2023-01-08T01:05:32.028Z,99790.38
2023-01-08T01:07:05.246Z,99790.44
2023-01-08T01:08:37.437Z,99786.97
2023-01-08T01:10:13.824Z,99791.34
2023-01-08T01:11:46.980Z,99778.38
2023-01-08T01:13:20.175Z,99785.34
2023-01-08T01:14:52.474Z,99787.03
2023-01-08T01:16:26.457Z,99776.53
2023-01-08T01:17:59.845Z,99781.72
2023-01-08T01:19:33.043Z,99782.59
2023-01-08T01:21:11.804Z,99769.66
2023-01-08T01:22:45.138Z,99790.47
2023-01-08T01:24:18.422Z,99787.03
2023-01-08T01:25:54.561Z,99785.34
2023-01-08T01:27:27.829Z,99784.44
2023-01-08T01:29:01.665Z,99774.06
2023-01-08T01:30:35.803Z,99774.06
2023-01-08T01:32:10.166Z,99783.50
2023-01-08T01:33:42.608Z,99784.22
2023-01-08T01:35:15.910Z,99778.00
2023-01-08T01:36:48.084Z,99782.22
2023-01-08T01:38:21.259Z,99777.78
2023-01-08T01:39:56.170Z,99779.41
2023-01-08T01:41:32.596Z,99781.06
2023-01-08T01:43:04.776Z,99774.09
2023-01-08T01:44:41.956Z,99777.53
2023-01-08T01:46:23.707Z,99767.03
2023-01-08T01:47:59.816Z,99769.69
2023-01-08T01:49:34.038Z,99766.28
2023-01-08T01:51:07.642Z,99772.41
2023-01-08T01:52:43.800Z,99767.16
2023-01-08T01:54:19.000Z,99768.94
2023-01-08T01:55:52.730Z,99775.03
2023-01-08T01:57:27.406Z,99773.31
2023-01-08T01:59:00.872Z,99773.28
2023-01-08T02:00:36.146Z,99776.72
2023-01-08T02:02:10.140Z,99768.88
2023-01-08T02:03:43.461Z,99763.56
2023-01-08T02:05:16.734Z,99772.22
2023-01-08T02:07:00.009Z,99772.94
2023-01-08T02:08:41.384Z,99764.94
2023-01-08T02:10:20.363Z,99774.53
2023-01-08T02:12:14.574Z,99773.66
2023-01-08T02:13:56.914Z,99775.38
2023-01-08T02:15:40.054Z,99765.00
2023-01-08T02:17:19.555Z,99770.25
2023-01-08T02:18:58.578Z,99766.81
2023-01-08T02:20:36.506Z,99771.84
2023-01-08T02:22:22.555Z,99766.56
2023-01-08T02:24:04.375Z,99775.06
2023-01-08T02:25:55.032Z,99774.16
2023-01-08T02:27:31.680Z,99768.00
2023-01-08T02:29:08.217Z,99767.16
2023-01-08T02:30:43.352Z,99762.84
2023-01-08T02:32:17.407Z,99762.84
2023-01-08T02:33:50.733Z,99766.34
2023-01-08T02:35:23.850Z,99766.41
2023-01-08T02:36:58.327Z,99757.75
2023-01-08T02:38:32.749Z,99767.41
2023-01-08T02:40:15.039Z,99756.13
2023-01-08T02:42:06.803Z,99761.41
2023-01-08T02:43:45.010Z,99765.75
2023-01-08T02:45:29.786Z,99759.75
2023-01-08T02:47:06.946Z,99754.56
2023-01-08T02:48:44.816Z,99763.28
2023-01-08T02:50:25.527Z,99758.09
2023-01-08T02:52:01.749Z,99755.47
2023-01-08T02:53:38.723Z,99761.47
2023-01-08T02:55:12.251Z,99747.50
2023-01-08T02:56:50.885Z,99759.69
2023-01-08T02:58:29.065Z,99760.56
2023-01-08T03:00:01.292Z,99771.84
2023-01-08T03:01:36.106Z,99751.94
2023-01-08T03:03:13.829Z,99757.16
2023-01-08T03:05:08.764Z,99775.44
2023-01-08T03:06:42.346Z,99760.78
2023-01-08T03:08:15.751Z,99769.47
2023-01-08T03:09:48.173Z,99772.94
2023-01-08T03:11:23.264Z,99769.44
2023-01-08T03:13:01.317Z,99761.59
2023-01-08T03:14:39.859Z,99765.91
2023-01-08T03:16:17.763Z,99770.13
2023-01-08T03:17:55.200Z,99763.16
2023-01-08T03:19:33.985Z,99762.31
2023-01-08T03:21:08.122Z,99763.22
2023-01-08T03:22:42.957Z,99759.75
2023-01-08T03:24:20.120Z,99769.94
2023-01-08T03:25:53.361Z,99760.22
2023-01-08T03:27:31.232Z,99762.81
2023-01-08T03:29:07.232Z,99768.84
2023-01-08T03:30:44.056Z,99774.94
2023-01-08T03:32:20.103Z,99768.78
2023-01-08T03:33:54.952Z,99767.94
2023-01-08T03:35:29.672Z,99768.78
2023-01-08T03:37:07.714Z,99761.81
2023-01-08T03:38:46.331Z,99767.03
2023-01-08T03:40:23.115Z,99769.63
2023-01-08T03:42:01.128Z,99772.28
2023-01-08T03:43:34.635Z,99764.53
2023-01-08T03:45:08.024Z,99764.44
2023-01-08T03:46:49.077Z,99763.63
2023-01-08T03:48:23.527Z,99768.00
2023-01-08T03:49:58.833Z,99766.25
2023-01-08T03:51:40.924Z,99764.56
2023-01-08T03:53:14.486Z,99761.88
2023-01-08T03:54:46.653Z,99764.44
2023-01-08T03:56:19.900Z,99768.69
2023-01-08T03:57:53.002Z,99769.63
2023-01-08T03:59:26.622Z,99768.75
2023-01-08T04:00:59.869Z,99773.06
2023-01-08T04:02:34.528Z,99777.41
2023-01-08T04:04:08.844Z,99777.41
2023-01-08T04:05:42.051Z,99776.53
2023-01-08T04:07:15.324Z,99781.72
2023-01-08T04:08:49.161Z,99779.94
2023-01-08T04:10:22.290Z,99778.13
2023-01-08T04:11:55.557Z,99779.72
2023-01-08T04:13:28.702Z,99761.41
2023-01-08T04:15:00.862Z,99779.56
2023-01-08T04:16:34.827Z,99778.56
2023-01-08T04:18:09.403Z,99782.00
2023-01-08T04:19:42.677Z,99778.47
2023-01-08T04:21:16.161Z,99780.16
2023-01-08T04:22:48.349Z,99774.06
2023-01-08T04:24:21.801Z,99781.78
2023-01-08T04:25:55.239Z,99777.47
2023-01-08T04:27:29.075Z,99779.13
2023-01-08T04:29:03.556Z,99780.88
2023-01-08T04:30:36.764Z,99772.22
2023-01-08T04:32:09.853Z,99763.41
2023-01-08T04:33:44.649Z,99774.75
2023-01-08T04:35:17.886Z,99775.53
2023-01-08T04:36:50.982Z,99780.63
2023-01-08T04:38:24.138Z,99778.84
2023-01-08T04:39:57.464Z,99786.56
2023-01-08T04:41:30.622Z,99782.13
2023-01-08T04:43:03.880Z,99784.53
2023-01-08T04:44:37.032Z,99785.28
2023-01-08T04:46:10.346Z,99782.72
2023-01-08T04:47:43.525Z,99787.88
2023-01-08T04:49:18.418Z,99789.59
2023-01-08T04:50:51.756Z,99790.47
2023-01-08T04:52:25.387Z,99791.47
2023-01-08T04:53:58.945Z,99769.81
2023-01-08T04:55:31.342Z,99783.81
2023-01-08T04:57:04.532Z,99780.25
2023-01-08T04:58:38.080Z,99790.47
2023-01-08T05:00:12.715Z,99785.97
2023-01-08T05:01:46.013Z,99791.00
2023-01-08T05:03:19.355Z,99789.16
2023-01-08T05:04:54.058Z,99786.53
2023-01-08T05:06:28.255Z,99783.91
2023-01-08T05:08:01.643Z,99783.13
2023-01-08T05:09:34.801Z,99784.84
2023-01-08T05:11:10.899Z,99784.00
2023-01-08T05:12:44.138Z,99797.75
2023-01-08T05:14:17.461Z,99784.78
2023-01-08T05:15:49.788Z,99786.53
2023-01-08T05:17:23.048Z,99783.88
2023-01-08T05:18:56.188Z,99791.59
2023-01-08T05:20:31.124Z,99797.75
2023-01-08T05:22:04.264Z,99790.03
2023-01-08T05:23:37.704Z,99795.22
2023-01-08T05:25:11.208Z,99801.31
2023-01-08T05:26:44.804Z,99797.03
2023-01-08T05:28:17.928Z,99798.84
2023-01-08T05:29:51.849Z,99793.66
2023-01-08T05:31:25.012Z,99799.72
2023-01-08T05:32:58.228Z,99798.09
2023-01-08T05:34:31.416Z,99812.00
2023-01-08T05:36:08.591Z,99793.84
2023-01-08T05:37:41.716Z,99802.53
2023-01-08T05:39:14.960Z,99801.78
2023-01-08T05:40:48.155Z,99806.16
2023-01-08T05:42:21.564Z,99811.47
2023-01-08T05:43:54.798Z,99796.00
2023-01-08T05:45:28.350Z,99814.19
2023-01-08T05:47:01.507Z,99799.41
2023-01-08T05:48:37.409Z,99805.44
2023-01-08T05:50:11.368Z,99791.56
2023-01-08T05:51:45.865Z,99794.06
2023-01-08T05:53:19.029Z,99802.63
2023-01-08T05:54:52.735Z,99813.78
2023-01-08T05:56:25.891Z,99799.84
2023-01-08T05:58:01.481Z,99802.47
2023-01-08T05:59:34.594Z,99798.91
2023-01-08T06:01:10.633Z,99805.63
2023-01-08T06:02:46.600Z,99805.56
2023-01-08T06:04:19.852Z,99812.38
2023-01-08T06:05:53.045Z,99810.66
2023-01-08T06:07:27.844Z,99809.00
2023-01-08T06:09:00.948Z,99813.44
2023-01-08T06:10:34.141Z,99817.00
2023-01-08T06:12:07.975Z,99812.63
2023-01-08T06:13:43.970Z,99808.28
2023-01-08T06:15:17.213Z,99806.53
2023-01-08T06:16:50.674Z,99813.41
2023-01-08T06:18:23.867Z,99805.56
2023-01-08T06:19:57.143Z,99811.63
2023-01-08T06:21:30.234Z,99809.19
2023-01-08T06:23:03.887Z,99807.50
2023-01-08T06:24:37.014Z,99812.81
2023-01-08T06:26:10.187Z,99818.16
2023-01-08T06:27:43.308Z,99815.66
2023-01-08T06:29:16.791Z,99816.59
2023-01-08T06:31:10.512Z,99819.25
2023-01-08T06:32:44.287Z,99828.00
2023-01-08T06:34:17.532Z,99811.72
2023-01-08T06:35:50.721Z,99813.53
2023-01-08T06:37:24.339Z,99821.41
2023-01-08T06:38:59.624Z,99822.41
2023-01-08T06:40:33.904Z,99816.53
2023-01-08T06:42:07.204Z,99824.44
2023-01-08T06:43:41.122Z,99827.22
2023-01-08T06:45:15.033Z,99828.25
2023-01-08T06:46:49.585Z,99829.13
2023-01-08T06:48:23.270Z,99817.94
2023-01-08T06:49:56.515Z,99833.50
2023-01-08T06:51:29.970Z,99830.72
2023-01-08T06:53:03.461Z,99824.50
2023-01-08T06:54:38.733Z,99832.47
2023-01-08T06:56:12.313Z,99823.84
2023-01-08T06:57:45.459Z,99834.34
2023-01-08T06:59:17.871Z,99846.59
2023-01-08T07:00:51.418Z,99840.63
2023-01-08T07:02:25.748Z,99829.56
2023-01-08T07:04:00.118Z,99820.06
2023-01-08T07:05:36.566Z,99822.78
2023-01-08T07:07:09.945Z,99828.16
2023-01-08T07:08:44.623Z,99829.06
2023-01-08T07:10:20.250Z,99825.69
2023-01-08T07:11:53.811Z,99834.50
2023-01-08T07:13:27.960Z,99829.41
2023-01-08T07:15:01.456Z,99826.03
2023-01-08T07:16:34.847Z,99829.56
2023-01-08T07:18:09.079Z,99833.97
2023-01-08T07:19:43.566Z,99822.72
2023-01-08T07:21:18.105Z,99829.75
2023-01-08T07:22:51.241Z,99836.78
2023-01-08T07:24:24.901Z,99832.47
2023-01-08T07:26:03.283Z,99831.88
2023-01-08T07:27:36.869Z,99829.63
2023-01-08T07:29:10.317Z,99829.25
2023-01-08T07:30:45.064Z,99838.44
2023-01-08T07:32:18.555Z,99832.03
2023-01-08T07:33:51.850Z,99840.22
2023-01-08T07:35:25.096Z,99827.47
2023-01-08T07:36:58.765Z,99831.97
2023-01-08T07:38:32.864Z,99822.50
2023-01-08T07:40:08.030Z,99827.75
2023-01-08T07:41:44.463Z,99838.25
2023-01-08T07:43:17.809Z,99827.81
2023-01-08T07:44:51.402Z,99829.53
2023-01-08T07:46:25.285Z,99826.00
2023-01-08T07:47:59.313Z,99814.59
2023-01-08T07:49:39.155Z,99821.50
2023-01-08T07:51:12.484Z,99827.50
2023-01-08T07:52:45.763Z,99820.53
2023-01-08T07:54:19.639Z,99829.06
2023-01-08T07:56:01.358Z,99819.22
2023-01-08T07:57:39.060Z,99811.25
2023-01-08T07:59:12.450Z,99813.72
2023-01-08T08:00:45.725Z,99814.56
2023-01-08T08:02:19.028Z,99811.78
2023-01-08T08:03:52.962Z,99809.91
2023-01-08T08:05:26.518Z,99817.75
2023-01-08T08:06:59.991Z,99810.63
2023-01-08T08:08:33.196Z,99817.50
2023-01-08T08:10:07.699Z,99810.53
2023-01-08T08:11:41.143Z,99814.00
2023-01-08T08:13:16.147Z,99815.66
2023-01-08T08:14:49.865Z,99815.44
2023-01-08T08:16:23.149Z,99810.94
2023-01-08T08:17:56.633Z,99809.94
2023-01-08T08:19:30.022Z,99808.09
2023-01-08T08:21:06.353Z,99811.41
2023-01-08T08:22:39.443Z,99811.16
2023-01-08T08:24:12.742Z,99810.97
2023-01-08T08:25:45.992Z,99819.34
2023-01-08T08:27:19.581Z,99810.28
2023-01-08T08:28:54.340Z,99813.34
2023-01-08T08:30:28.627Z,99814.81
2023-01-08T08:32:01.774Z,99802.34
2023-01-08T08:33:35.034Z,99805.69
2023-01-08T08:35:08.751Z,99810.56
2023-01-08T08:36:42.043Z,99806.69
2023-01-08T08:38:15.614Z,99804.56
2023-01-08T08:39:53.248Z,99798.25
2023-01-08T08:41:29.618Z,99798.69
2023-01-08T08:43:05.554Z,99800.13
2023-01-08T08:44:43.096Z,99796.44
2023-01-08T08:46:16.963Z,99792.78
2023-01-08T08:47:50.116Z,99802.97
2023-01-08T08:49:23.358Z,99797.00
2023-01-08T08:50:56.669Z,99790.97
2023-01-08T08:52:31.272Z,99791.63
2023-01-08T08:54:05.210Z,99790.53
2023-01-08T08:55:38.416Z,99792.75
2023-01-08T08:57:12.319Z,99794.47
2023-01-08T08:58:46.894Z,99794.06
2023-01-08T09:00:22.046Z,99786.56
2023-01-08T09:01:55.381Z,99786.59
2023-01-08T09:03:29.037Z,99786.84
2023-01-08T09:05:02.258Z,99783.94
2023-01-08T09:06:35.562Z,99781.34
2023-01-08T09:08:09.735Z,99777.41
2023-01-08T09:09:43.013Z,99779.28
2023-01-08T09:11:16.231Z,99782.06
2023-01-08T09:12:49.627Z,99769.56
2023-01-08T09:14:23.655Z,99769.75
2023-01-08T09:16:00.800Z,99765.56
2023-01-08T09:17:34.601Z,99762.16
2023-01-08T09:19:08.575Z,99759.47
2023-01-08T09:20:42.631Z,99757.13
2023-01-08T09:22:15.890Z,99759.59
2023-01-08T09:23:50.156Z,99758.19
2023-01-08T09:25:23.289Z,99744.03
2023-01-08T09:26:57.409Z,99747.84
2023-01-08T09:28:31.339Z,99746.63
2023-01-08T09:30:05.772Z,99739.34
2023-01-08T09:31:40.881Z,99738.81
2023-01-08T09:33:15.089Z,99744.16
2023-01-08T09:34:56.524Z,99740.69
2023-01-08T09:36:30.948Z,99733.91
2023-01-08T09:38:04.800Z,99723.91
2023-01-08T09:39:38.025Z,99727.22
2023-01-08T09:41:15.013Z,99721.97
2023-01-08T09:42:55.323Z,99707.16
2023-01-08T09:44:32.714Z,99713.75
2023-01-08T09:46:08.966Z,99711.16
2023-01-08T09:47:45.507Z,99700.44
2023-01-08T09:49:25.709Z,99700.19
2023-01-08T09:51:00.594Z,99699.19
2023-01-08T09:52:34.354Z,99696.72
2023-01-08T09:54:08.292Z,99692.78
2023-01-08T09:55:42.649Z,99688.59
2023-01-08T09:57:18.835Z,99696.69
2023-01-08T09:58:54.175Z,99682.88
2023-01-08T10:00:30.391Z,99684.84
2023-01-08T10:02:05.566Z,99679.72
2023-01-08T10:03:43.617Z,99678.03
2023-01-08T10:05:19.806Z,99677.41
2023-01-08T10:06:57.568Z,99671.41
2023-01-08T10:08:30.910Z,99670.63
2023-01-08T10:10:04.252Z,99670.69
2023-01-08T10:11:43.533Z,99660.16
2023-01-08T10:13:17.494Z,99660.13
2023-01-08T10:14:52.547Z,99656.72
2023-01-08T10:16:32.081Z,99662.03
2023-01-08T10:18:07.769Z,99660.38
2023-01-08T10:19:41.469Z,99648.13
2023-01-08T10:21:15.776Z,99648.16
2023-01-08T10:22:54.334Z,99642.00
2023-01-08T10:24:39.733Z,99639.31
2023-01-08T10:26:12.917Z,99630.44
2023-01-08T10:27:52.351Z,99635.53
2023-01-08T10:29:26.587Z,99625.84
2023-01-08T10:31:10.369Z,99624.78
2023-01-08T10:32:48.910Z,99621.38
2023-01-08T10:34:32.920Z,99617.84
2023-01-08T10:36:10.069Z,99614.41
2023-01-08T10:37:44.877Z,99614.34
2023-01-08T10:39:22.866Z,99620.25
2023-01-08T10:40:57.821Z,99613.91
2023-01-08T10:42:36.445Z,99605.84
2023-01-08T10:44:17.862Z,99611.81
2023-01-08T10:46:03.162Z,99606.44
2023-01-08T10:47:38.428Z,99600.34
2023-01-08T10:49:19.950Z,99601.97
2023-01-08T10:50:53.323Z,99595.72
2023-01-08T10:52:31.729Z,99593.91
2023-01-08T10:54:15.873Z,99602.53
2023-01-08T10:55:59.115Z,99592.78
2023-01-08T10:57:32.943Z,99592.59
2023-01-08T10:59:06.238Z,99591.53
2023-01-08T11:00:39.832Z,99600.22
2023-01-08T11:02:22.597Z,99586.78
2023-01-08T11:03:59.834Z,99583.97
2023-01-08T11:05:35.235Z,99574.13
2023-01-08T11:07:20.399Z,99585.41
2023-01-08T11:08:55.882Z,99577.19
2023-01-08T11:10:30.731Z,99574.38
2023-01-08T11:12:05.896Z,99577.78
2023-01-08T11:13:39.858Z,99577.66
2023-01-08T11:15:35.689Z,99566.88
2023-01-08T11:17:12.635Z,99567.47
2023-01-08T11:18:49.833Z,99571.56
2023-01-08T11:20:25.485Z,99565.19
2023-01-08T11:22:01.089Z,99559.72
2023-01-08T11:23:34.266Z,99564.75
2023-01-08T11:25:14.628Z,99572.53
2023-01-08T11:26:52.409Z,99570.56
2023-01-08T11:28:35.002Z,99567.66
2023-01-08T11:30:14.702Z,99566.50
2023-01-08T11:31:55.443Z,99562.75
2023-01-08T11:33:32.335Z,99562.69
2023-01-08T11:35:14.648Z,99567.97
2023-01-08T11:36:52.299Z,99558.00
2023-01-08T11:38:25.608Z,99554.38
2023-01-08T11:39:58.967Z,99560.34
2023-01-08T11:41:47.596Z,99558.44
2023-01-08T11:43:35.604Z,99556.50
2023-01-08T11:45:19.108Z,99546.59
2023-01-08T11:47:00.998Z,99547.47
2023-01-08T11:48:51.311Z,99542.81
2023-01-08T11:50:29.555Z,99549.63
2023-01-08T11:52:18.801Z,99543.44
2023-01-08T11:54:03.952Z,99539.69
2023-01-08T11:55:51.043Z,99538.56
2023-01-08T11:57:35.421Z,99533.06
2023-01-08T11:59:20.392Z,99537.28
2023-01-08T12:01:04.241Z,99538.81
2023-01-08T12:02:52.567Z,99527.25
2023-01-08T12:04:53.378Z,99534.91
2023-01-08T12:06:39.342Z,99533.78
2023-01-08T12:08:20.819Z,99529.28
2023-01-08T12:10:01.570Z,99530.94
2023-01-08T12:11:41.970Z,99521.97
2023-01-08T12:13:54.766Z,99524.34
2023-01-08T12:15:48.857Z,99528.34
2023-01-08T12:17:56.169Z,99516.69
2023-01-08T12:19:42.536Z,99519.06
2023-01-08T12:21:22.689Z,99517.13
2023-01-08T12:23:06.770Z,99518.72
2023-01-08T12:24:58.894Z,99515.94
2023-01-08T12:26:40.651Z,99517.47
2023-01-08T12:28:33.811Z,99513.78
2023-01-08T12:30:19.216Z,99513.53
2023-01-08T12:32:14.779Z,99507.13
2023-01-08T12:33:53.167Z,99521.88
2023-01-08T12:35:30.698Z,99507.66
2023-01-08T12:37:13.432Z,99516.25
2023-01-08T12:38:54.596Z,99506.34
2023-01-08T12:40:33.519Z,99511.41
2023-01-08T12:42:12.360Z,99508.44
2023-01-08T12:43:52.453Z,99512.66
2023-01-08T12:45:29.324Z,99504.53
2023-01-08T12:47:06.855Z,99512.31
2023-01-08T12:48:40.931Z,99511.31
2023-01-08T12:50:28.643Z,99518.28
2023-01-08T12:52:10.270Z,99512.03
2023-01-08T12:53:56.112Z,99511.94
2023-01-08T12:55:41.771Z,99511.81
2023-01-08T12:57:22.449Z,99508.91
2023-01-08T12:59:06.565Z,99507.06
2023-01-08T13:00:42.932Z,99500.69
2023-01-08T13:02:33.880Z,99512.06
2023-01-08T13:04:10.552Z,99509.09
2023-01-08T13:05:44.901Z,99504.19
2023-01-08T13:07:21.553Z,99508.09
2023-01-08T13:09:01.530Z,99506.63
2023-01-08T13:10:40.042Z,99511.44
2023-01-08T13:12:16.600Z,99507.66
2023-01-08T13:13:49.914Z,99515.44
2023-01-08T13:15:26.261Z,99503.81
2023-01-08T13:17:05.622Z,99510.00
2023-01-08T13:18:40.341Z,99508.09
2023-01-08T13:20:23.068Z,99504.41
2023-01-08T13:21:58.877Z,99510.56
2023-01-08T13:23:35.262Z,99511.44
2023-01-08T13:25:32.344Z,99514.94
2023-01-08T13:27:24.228Z,99508.72
2023-01-08T13:29:08.203Z,99518.72
2023-01-08T13:30:43.371Z,99521.50
2023-01-08T13:32:28.157Z,99523.31
2023-01-08T13:34:02.771Z,99522.44
2023-01-08T13:35:36.356Z,99520.75
2023-01-08T13:37:19.660Z,99519.03
2023-01-08T13:39:02.627Z,99524.44
2023-01-08T13:40:53.552Z,99513.97
2023-01-08T13:42:28.815Z,99521.03
2023-01-08T13:44:05.350Z,99516.69
2023-01-08T13:45:38.896Z,99514.25
2023-01-08T13:47:21.379Z,99510.78
2023-01-08T13:49:01.469Z,99512.66
2023-01-08T13:50:38.862Z,99512.75
2023-01-08T13:52:32.834Z,99506.63
2023-01-08T13:54:17.322Z,99507.69
2023-01-08T13:55:58.316Z,99504.50
2023-01-08T13:57:39.127Z,99509.69
2023-01-08T13:59:28.106Z,99513.22
2023-01-08T14:01:03.157Z,99505.63
2023-01-08T14:02:44.744Z,99506.72
2023-01-08T14:04:22.062Z,99513.88
2023-01-08T14:06:07.655Z,99500.06
2023-01-08T14:07:40.875Z,99506.31
2023-01-08T14:09:22.732Z,99499.28
2023-01-08T14:10:56.319Z,99498.59
2023-01-08T14:12:29.677Z,99502.28
2023-01-08T14:14:03.446Z,99504.16
2023-01-08T14:15:37.076Z,99500.81
2023-01-08T14:17:17.689Z,99500.81
2023-01-08T14:18:52.167Z,99499.22
2023-01-08T14:20:32.514Z,99502.91
2023-01-08T14:22:17.069Z,99494.28
2023-01-08T14:23:52.776Z,99501.53
2023-01-08T14:25:26.528Z,99507.97
2023-01-08T14:27:01.903Z,99501.94
2023-01-08T14:28:35.834Z,99502.03
2023-01-08T14:30:17.406Z,99497.00
2023-01-08T14:31:53.282Z,99503.47
2023-01-08T14:33:32.332Z,99495.72
2023-01-08T14:35:09.529Z,99496.84
2023-01-08T14:36:44.053Z,99504.09
2023-01-08T14:38:19.414Z,99498.16
2023-01-08T14:39:56.523Z,99499.34
2023-01-08T14:41:49.626Z,99503.91
2023-01-08T14:43:23.604Z,99502.38
2023-01-08T14:44:58.404Z,99498.28
2023-01-08T14:46:32.056Z,99502.84
2023-01-08T14:48:12.958Z,99503.19
2023-01-08T14:49:53.356Z,99503.50
2023-01-08T14:51:29.242Z,99508.06
2023-01-08T14:53:08.374Z,99509.13
2023-01-08T14:54:47.597Z,99512.91
2023-01-08T14:56:23.751Z,99513.22
2023-01-08T14:57:58.287Z,99513.44
2023-01-08T14:59:34.864Z,99517.97
2023-01-08T15:01:15.121Z,99514.63
2023-01-08T15:02:50.670Z,99519.25
2023-01-08T15:04:25.068Z,99525.56
2023-01-08T15:06:01.697Z,99520.38
2023-01-08T15:07:35.330Z,99517.13
2023-01-08T15:09:22.467Z,99515.59
2023-01-08T15:11:04.728Z,99520.25
2023-01-08T15:12:38.191Z,99518.63
2023-01-08T15:14:14.794Z,99520.66
2023-01-08T15:15:56.276Z,99522.69
2023-01-08T15:17:30.163Z,99515.84
2023-01-08T15:19:08.783Z,99517.88
2023-01-08T15:20:46.038Z,99514.72
2023-01-08T15:22:22.185Z,99510.56
2023-01-08T15:23:58.048Z,99514.56
2023-01-08T15:25:32.038Z,99517.31
2023-01-08T15:27:10.706Z,99522.00
2023-01-08T15:28:53.026Z,99517.69
2023-01-08T15:30:29.720Z,99519.56
2023-01-08T15:32:12.251Z,99515.56
2023-01-08T15:33:46.188Z,99514.94
2023-01-08T15:35:20.291Z,99516.81
2023-01-08T15:36:53.485Z,99516.09
2023-01-08T15:38:26.789Z,99517.09
2023-01-08T15:40:00.822Z,99519.00
2023-01-08T15:41:53.935Z,99517.41
2023-01-08T15:43:28.494Z,99515.78
2023-01-08T15:45:01.632Z,99515.84
2023-01-08T15:46:35.357Z,99520.28
2023-01-08T15:48:09.904Z,99512.44
2023-01-08T15:49:43.052Z,99520.47
2023-01-08T15:51:16.694Z,99518.91
2023-01-08T15:52:49.263Z,99520.72
2023-01-08T15:54:26.613Z,99515.53
2023-01-08T15:55:59.756Z,99513.00
2023-01-08T15:57:38.651Z,99525.38
2023-01-08T15:59:15.512Z,99518.38
2023-01-08T16:00:48.903Z,99518.38
2023-01-08T16:02:22.822Z,99501.00
2023-01-08T16:03:56.242Z,99518.44
2023-01-08T16:05:33.190Z,99526.44
2023-01-08T16:07:06.605Z,99520.41
2023-01-08T16:08:39.740Z,99524.03
2023-01-08T16:10:13.295Z,99526.00
2023-01-08T16:11:46.999Z,99523.50
2023-01-08T16:13:20.582Z,99528.09
2023-01-08T16:14:57.676Z,99523.84
2023-01-08T16:16:31.204Z,99519.66
2023-01-08T16:18:04.602Z,99519.75
2023-01-08T16:19:38.002Z,99519.03
2023-01-08T16:21:12.579Z,99519.13
2023-01-08T16:22:46.190Z,99523.66
2023-01-08T16:24:19.458Z,99528.97
2023-01-08T16:25:52.943Z,99522.94
2023-01-08T16:27:26.219Z,99520.38
2023-01-08T16:28:59.754Z,99525.81
2023-01-08T16:30:34.891Z,99520.66
2023-01-08T16:32:08.722Z,99519.91
2023-01-08T16:33:41.917Z,99520.00
2023-01-08T16:35:16.198Z,99519.28
2023-01-08T16:36:49.990Z,99521.16
2023-01-08T16:38:25.484Z,99530.03
2023-01-08T16:39:58.839Z,99519.66
2023-01-08T16:41:32.071Z,99529.31
2023-01-08T16:43:05.177Z,99522.41
2023-01-08T16:44:39.603Z,99531.16
2023-01-08T16:46:16.377Z,99525.94
2023-01-08T16:47:49.794Z,99533.00
2023-01-08T16:49:23.754Z,99529.53
2023-01-08T16:50:57.303Z,99528.69
2023-01-08T16:52:30.717Z,99528.72
2023-01-08T16:54:04.128Z,99529.66
2023-01-08T16:55:38.483Z,99527.09
2023-01-08T16:57:12.403Z,99523.66
2023-01-08T16:58:47.462Z,99530.78
2023-01-08T17:00:22.295Z,99522.06
2023-01-08T17:01:56.973Z,99544.84
2023-01-08T17:03:30.971Z,99533.56
2023-01-08T17:05:04.357Z,99527.53
2023-01-08T17:06:38.695Z,99538.16
2023-01-08T17:08:15.954Z,99530.41
2023-01-08T17:09:49.577Z,99530.50
2023-01-08T17:11:25.208Z,99529.75
2023-01-08T17:12:58.397Z,99529.81
2023-01-08T17:14:31.989Z,99533.34
2023-01-08T17:16:06.057Z,99521.13
2023-01-08T17:17:40.819Z,99524.66
2023-01-08T17:19:14.201Z,99527.31
2023-01-08T17:20:53.549Z,99533.53
2023-01-08T17:22:27.397Z,99527.44
2023-01-08T17:24:00.663Z,99527.50
2023-01-08T17:25:33.797Z,99535.41
2023-01-08T17:27:07.039Z,99532.00
2023-01-08T17:28:41.634Z,99530.31
2023-01-08T17:30:15.678Z,99530.38
2023-01-08T17:31:49.197Z,99525.25
2023-01-08T17:33:23.816Z,99533.25
2023-01-08T17:34:57.670Z,99536.06
2023-01-08T17:36:32.531Z,99532.84
2023-01-08T17:38:05.891Z,99532.06
2023-01-08T17:39:39.173Z,99531.22
2023-01-08T17:41:32.941Z,99530.44
2023-01-08T17:43:05.101Z,99538.44
2023-01-08T17:44:38.368Z,99538.50
2023-01-08T17:46:11.617Z,99535.06
2023-01-08T17:47:45.152Z,99543.91
2023-01-08T17:49:20.157Z,99532.63
2023-01-08T17:50:53.453Z,99537.94
2023-01-08T17:52:27.350Z,99535.38
2023-01-08T17:54:03.068Z,99538.94
2023-01-08T17:55:37.252Z,99551.22
2023-01-08T17:57:12.252Z,99545.19
2023-01-08T17:58:45.903Z,99544.34
2023-01-08T18:00:20.742Z,99540.91
2023-01-08T18:01:54.441Z,99537.47
2023-01-08T18:03:28.244Z,99532.25
2023-01-08T18:05:02.994Z,99532.28
2023-01-08T18:06:36.685Z,99525.31
2023-01-08T18:08:10.056Z,99533.22
2023-01-08T18:09:44.113Z,99530.63
2023-01-08T18:11:17.752Z,99528.88
2023-01-08T18:12:51.306Z,99528.88
2023-01-08T18:14:25.062Z,99527.19
2023-01-08T18:16:03.348Z,99532.44
2023-01-08T18:17:37.034Z,99532.47
2023-01-08T18:19:10.873Z,99536.88
2023-01-08T18:20:45.619Z,99536.88
2023-01-08T18:22:19.244Z,99540.44
2023-01-08T18:23:52.810Z,99541.34
2023-01-08T18:25:26.344Z,99536.16
2023-01-08T18:26:59.800Z,99536.19
2023-01-08T18:28:33.639Z,99539.72
2023-01-08T18:30:08.517Z,99531.94
2023-01-08T18:31:44.311Z,99546.84
2023-01-08T18:33:19.091Z,99531.16
2023-01-08T18:34:52.467Z,99534.69
2023-01-08T18:36:27.693Z,99524.31
2023-01-08T18:38:01.080Z,99533.91
2023-01-08T18:39:34.782Z,99536.53
2023-01-08T18:41:09.261Z,99538.31
2023-01-08T18:42:41.566Z,99540.94
2023-01-08T18:44:15.999Z,99537.50
2023-01-08T18:45:49.654Z,99543.66
2023-01-08T18:47:23.861Z,99543.66
2023-01-08T18:48:57.558Z,99554.16